sensor_id;sensor_type;location;lat;lon;timestamp;P1;durP1;ratioP1;P2;durP2;ratioP2
37559;SDS011;23398;50.928;7.084;2022-07-01T00:00:47;1.80;;;1.55;;
37559;SDS011;23398;50.928;7.084;2022-07-01T00:03:13;1.55;;;1.33;;
37559;SDS011;23398;50.928;7.084;2022-07-01T00:05:39;1.63;;;1.30;;
37559;SDS011;23398;50.928;7.084;2022-07-01T00:08:04;1.40;;;1.30;;
37559;SDS011;23398;50.928;7.084;2022-07-01T00:10:30;1.60;;;1.13;;
37559;SDS011;23398;50.928;7.084;2022-07-01T00:12:56;1.33;;;1.23;;
37559;SDS011;23398;50.928;7.084;2022-07-01T00:15:22;1.90;;;1.45;;
37559;SDS011;23398;50.928;7.084;2022-07-01T00:17:48;1.90;;;1.70;;
37559;SDS011;23398;50.928;7.084;2022-07-01T00:20:13;1.67;;;1.40;;
37559;SDS011;23398;50.928;7.084;2022-07-01T00:22:39;1.42;;;1.25;;
37559;SDS011;23398;50.928;7.084;2022-07-01T00:25:05;1.48;;;1.38;;
37559;SDS011;23398;50.928;7.084;2022-07-01T00:27:32;1.38;;;1.23;;
37559;SDS011;23398;50.928;7.084;2022-07-01T00:30:01;1.77;;;1.40;;
37559;SDS011;23398;50.928;7.084;2022-07-01T00:32:26;2.38;;;1.58;;
37559;SDS011;23398;50.928;7.084;2022-07-01T00:34:52;2.47;;;1.65;;
37559;SDS011;23398;50.928;7.084;2022-07-01T00:37:17;3.92;;;1.90;;
37559;SDS011;23398;50.928;7.084;2022-07-01T00:39:43;1.98;;;1.75;;
37559;SDS011;23398;50.928;7.084;2022-07-01T00:42:08;2.95;;;1.98;;
37559;SDS011;23398;50.928;7.084;2022-07-01T00:44:34;2.55;;;2.00;;
37559;SDS011;23398;50.928;7.084;2022-07-01T00:47:00;3.00;;;1.88;;
37559;SDS011;23398;50.928;7.084;2022-07-01T00:49:27;2.65;;;2.25;;
37559;SDS011;23398;50.928;7.084;2022-07-01T00:51:54;2.47;;;2.20;;
37559;SDS011;23398;50.928;7.084;2022-07-01T00:54:20;2.42;;;2.20;;
37559;SDS011;23398;50.928;7.084;2022-07-01T00:56:47;2.60;;;1.92;;
37559;SDS011;23398;50.928;7.084;2022-07-01T00:59:13;2.80;;;2.00;;
37559;SDS011;23398;50.928;7.084;2022-07-01T01:01:39;2.85;;;2.35;;
37559;SDS011;23398;50.928;7.084;2022-07-01T01:04:05;2.85;;;2.50;;
37559;SDS011;23398;50.928;7.084;2022-07-01T01:06:31;2.60;;;2.20;;
37559;SDS011;23398;50.928;7.084;2022-07-01T01:08:56;3.47;;;2.53;;
37559;SDS011;23398;50.928;7.084;2022-07-01T01:11:22;3.17;;;2.38;;
37559;SDS011;23398;50.928;7.084;2022-07-01T01:13:48;4.03;;;2.42;;
37559;SDS011;23398;50.928;7.084;2022-07-01T01:16:17;2.95;;;2.42;;
37559;SDS011;23398;50.928;7.084;2022-07-01T01:18:44;3.40;;;2.50;;
37559;SDS011;23398;50.928;7.084;2022-07-01T01:21:10;3.33;;;2.40;;
37559;SDS011;23398;50.928;7.084;2022-07-01T01:23:36;3.28;;;2.63;;
37559;SDS011;23398;50.928;7.084;2022-07-01T01:26:02;2.58;;;2.22;;
37559;SDS011;23398;50.928;7.084;2022-07-01T01:28:28;2.63;;;2.28;;
37559;SDS011;23398;50.928;7.084;2022-07-01T01:30:53;2.40;;;2.15;;
37559;SDS011;23398;50.928;7.084;2022-07-01T01:33:19;3.58;;;2.47;;
37559;SDS011;23398;50.928;7.084;2022-07-01T01:35:45;3.38;;;2.42;;
37559;SDS011;23398;50.928;7.084;2022-07-01T01:38:11;4.00;;;2.55;;
37559;SDS011;23398;50.928;7.084;2022-07-01T01:40:37;3.47;;;2.80;;
37559;SDS011;23398;50.928;7.084;2022-07-01T01:43:03;6.75;;;2.95;;
37559;SDS011;23398;50.928;7.084;2022-07-01T01:45:29;5.28;;;3.03;;
37559;SDS011;23398;50.928;7.084;2022-07-01T01:47:54;3.47;;;3.00;;
37559;SDS011;23398;50.928;7.084;2022-07-01T01:50:20;3.25;;;2.95;;
37559;SDS011;23398;50.928;7.084;2022-07-01T01:52:46;4.60;;;3.05;;
37559;SDS011;23398;50.928;7.084;2022-07-01T01:55:12;3.50;;;2.65;;
37559;SDS011;23398;50.928;7.084;2022-07-01T01:57:38;5.05;;;2.78;;
37559;SDS011;23398;50.928;7.084;2022-07-01T02:00:06;4.05;;;2.80;;
37559;SDS011;23398;50.928;7.084;2022-07-01T02:02:33;2.55;;;2.35;;
37559;SDS011;23398;50.928;7.084;2022-07-01T02:05:01;3.00;;;2.55;;
37559;SDS011;23398;50.928;7.084;2022-07-01T02:07:28;3.17;;;2.40;;
37559;SDS011;23398;50.928;7.084;2022-07-01T02:09:54;2.65;;;2.25;;
37559;SDS011;23398;50.928;7.084;2022-07-01T02:12:19;3.17;;;2.40;;
37559;SDS011;23398;50.928;7.084;2022-07-01T02:14:45;3.22;;;2.45;;
37559;SDS011;23398;50.928;7.084;2022-07-01T02:17:10;3.38;;;2.42;;
37559;SDS011;23398;50.928;7.084;2022-07-01T02:19:36;3.00;;;2.13;;
37559;SDS011;23398;50.928;7.084;2022-07-01T02:22:02;2.95;;;2.10;;
37559;SDS011;23398;50.928;7.084;2022-07-01T02:24:27;3.10;;;1.88;;
37559;SDS011;23398;50.928;7.084;2022-07-01T02:26:53;2.28;;;1.77;;
37559;SDS011;23398;50.928;7.084;2022-07-01T02:29:18;2.35;;;1.80;;
37559;SDS011;23398;50.928;7.084;2022-07-01T02:31:44;1.88;;;1.67;;
37559;SDS011;23398;50.928;7.084;2022-07-01T02:34:09;2.00;;;1.80;;
37559;SDS011;23398;50.928;7.084;2022-07-01T02:36:35;2.90;;;1.70;;
37559;SDS011;23398;50.928;7.084;2022-07-01T02:39:01;2.05;;;1.80;;
37559;SDS011;23398;50.928;7.084;2022-07-01T02:41:27;2.60;;;1.60;;
37559;SDS011;23398;50.928;7.084;2022-07-01T02:43:52;2.45;;;1.60;;
37559;SDS011;23398;50.928;7.084;2022-07-01T02:46:18;2.10;;;1.48;;
37559;SDS011;23398;50.928;7.084;2022-07-01T02:48:43;1.92;;;1.60;;
37559;SDS011;23398;50.928;7.084;2022-07-01T02:51:09;1.67;;;1.58;;
37559;SDS011;23398;50.928;7.084;2022-07-01T02:53:34;1.70;;;1.40;;
37559;SDS011;23398;50.928;7.084;2022-07-01T02:56:00;1.80;;;1.42;;
37559;SDS011;23398;50.928;7.084;2022-07-01T02:58:26;1.67;;;1.42;;
37559;SDS011;23398;50.928;7.084;2022-07-01T03:00:51;1.52;;;1.40;;
37559;SDS011;23398;50.928;7.084;2022-07-01T03:03:18;2.72;;;1.80;;
37559;SDS011;23398;50.928;7.084;2022-07-01T03:05:44;3.15;;;1.60;;
37559;SDS011;23398;50.928;7.084;2022-07-01T03:08:09;1.48;;;1.35;;
37559;SDS011;23398;50.928;7.084;2022-07-01T03:10:35;2.25;;;1.52;;
37559;SDS011;23398;50.928;7.084;2022-07-01T03:13:01;1.63;;;1.52;;
37559;SDS011;23398;50.928;7.084;2022-07-01T03:15:27;1.67;;;1.58;;
37559;SDS011;23398;50.928;7.084;2022-07-01T03:17:52;2.58;;;2.05;;
37559;SDS011;23398;50.928;7.084;2022-07-01T03:20:18;4.25;;;2.42;;
37559;SDS011;23398;50.928;7.084;2022-07-01T03:22:44;2.20;;;1.70;;
37559;SDS011;23398;50.928;7.084;2022-07-01T03:25:10;2.03;;;1.48;;
37559;SDS011;23398;50.928;7.084;2022-07-01T03:27:36;1.77;;;1.27;;
37559;SDS011;23398;50.928;7.084;2022-07-01T03:30:02;2.08;;;1.50;;
37559;SDS011;23398;50.928;7.084;2022-07-01T03:32:30;4.00;;;1.63;;
37559;SDS011;23398;50.928;7.084;2022-07-01T03:34:55;4.35;;;2.38;;
37559;SDS011;23398;50.928;7.084;2022-07-01T03:37:21;2.92;;;2.10;;
37559;SDS011;23398;50.928;7.084;2022-07-01T03:39:47;1.63;;;1.40;;
37559;SDS011;23398;50.928;7.084;2022-07-01T03:42:14;3.90;;;1.30;;
37559;SDS011;23398;50.928;7.084;2022-07-01T03:44:40;1.35;;;1.17;;
37559;SDS011;23398;50.928;7.084;2022-07-01T03:47:06;1.33;;;1.13;;
37559;SDS011;23398;50.928;7.084;2022-07-01T03:49:35;1.30;;;1.00;;
37559;SDS011;23398;50.928;7.084;2022-07-01T03:52:01;1.98;;;1.15;;
37559;SDS011;23398;50.928;7.084;2022-07-01T03:54:28;1.25;;;1.00;;
37559;SDS011;23398;50.928;7.084;2022-07-01T03:57:03;2.00;;;1.20;;
37559;SDS011;23398;50.928;7.084;2022-07-01T03:59:30;3.42;;;2.85;;
37559;SDS011;23398;50.928;7.084;2022-07-01T04:01:57;3.88;;;2.72;;
37559;SDS011;23398;50.928;7.084;2022-07-01T04:04:23;3.30;;;1.88;;
37559;SDS011;23398;50.928;7.084;2022-07-01T04:06:50;1.95;;;1.60;;
37559;SDS011;23398;50.928;7.084;2022-07-01T04:09:16;1.92;;;1.35;;
37559;SDS011;23398;50.928;7.084;2022-07-01T04:11:43;2.75;;;1.30;;
37559;SDS011;23398;50.928;7.084;2022-07-01T04:14:10;1.40;;;1.27;;
37559;SDS011;23398;50.928;7.084;2022-07-01T04:16:36;1.55;;;1.20;;
37559;SDS011;23398;50.928;7.084;2022-07-01T04:19:02;2.25;;;1.33;;
37559;SDS011;23398;50.928;7.084;2022-07-01T04:21:28;2.17;;;1.20;;
37559;SDS011;23398;50.928;7.084;2022-07-01T04:24:12;2.20;;;1.02;;
37559;SDS011;23398;50.928;7.084;2022-07-01T04:26:41;2.40;;;1.23;;
37559;SDS011;23398;50.928;7.084;2022-07-01T04:29:07;2.00;;;1.30;;
37559;SDS011;23398;50.928;7.084;2022-07-01T04:31:34;2.15;;;1.27;;
37559;SDS011;23398;50.928;7.084;2022-07-01T04:34:00;2.80;;;1.70;;
37559;SDS011;23398;50.928;7.084;2022-07-01T04:36:26;2.25;;;1.23;;
37559;SDS011;23398;50.928;7.084;2022-07-01T04:38:52;1.80;;;1.30;;
37559;SDS011;23398;50.928;7.084;2022-07-01T04:41:17;2.10;;;1.13;;
37559;SDS011;23398;50.928;7.084;2022-07-01T04:44:01;2.97;;;1.38;;
37559;SDS011;23398;50.928;7.084;2022-07-01T04:46:27;2.60;;;1.20;;
37559;SDS011;23398;50.928;7.084;2022-07-01T04:48:53;2.75;;;1.35;;
37559;SDS011;23398;50.928;7.084;2022-07-01T04:51:19;2.78;;;1.88;;
37559;SDS011;23398;50.928;7.084;2022-07-01T04:53:45;2.72;;;1.83;;
37559;SDS011;23398;50.928;7.084;2022-07-01T04:56:10;3.30;;;1.40;;
37559;SDS011;23398;50.928;7.084;2022-07-01T04:58:36;1.38;;;1.10;;
37559;SDS011;23398;50.928;7.084;2022-07-01T05:01:02;2.05;;;1.15;;
37559;SDS011;23398;50.928;7.084;2022-07-01T05:03:27;1.98;;;1.00;;
37559;SDS011;23398;50.928;7.084;2022-07-01T05:05:53;1.77;;;0.90;;
37559;SDS011;23398;50.928;7.084;2022-07-01T05:08:18;1.75;;;1.02;;
37559;SDS011;23398;50.928;7.084;2022-07-01T05:10:44;1.95;;;1.20;;
37559;SDS011;23398;50.928;7.084;2022-07-01T05:13:09;1.98;;;1.20;;
37559;SDS011;23398;50.928;7.084;2022-07-01T05:15:35;2.65;;;1.10;;
37559;SDS011;23398;50.928;7.084;2022-07-01T05:18:01;2.80;;;1.20;;
37559;SDS011;23398;50.928;7.084;2022-07-01T05:20:45;1.30;;;1.02;;
37559;SDS011;23398;50.928;7.084;2022-07-01T05:23:29;4.30;;;2.65;;
37559;SDS011;23398;50.928;7.084;2022-07-01T05:25:54;2.13;;;1.45;;
37559;SDS011;23398;50.928;7.084;2022-07-01T05:28:20;2.33;;;1.23;;
37559;SDS011;23398;50.928;7.084;2022-07-01T05:30:46;2.17;;;1.20;;
37559;SDS011;23398;50.928;7.084;2022-07-01T05:33:11;2.63;;;1.13;;
37559;SDS011;23398;50.928;7.084;2022-07-01T05:35:37;2.28;;;1.10;;
37559;SDS011;23398;50.928;7.084;2022-07-01T05:38:02;2.35;;;1.13;;
37559;SDS011;23398;50.928;7.084;2022-07-01T05:40:28;2.25;;;1.00;;
37559;SDS011;23398;50.928;7.084;2022-07-01T05:42:54;4.25;;;1.30;;
37559;SDS011;23398;50.928;7.084;2022-07-01T05:45:20;2.38;;;1.27;;
37559;SDS011;23398;50.928;7.084;2022-07-01T05:47:45;1.88;;;1.13;;
37559;SDS011;23398;50.928;7.084;2022-07-01T05:50:11;1.95;;;1.13;;
37559;SDS011;23398;50.928;7.084;2022-07-01T05:52:37;2.83;;;1.10;;
37559;SDS011;23398;50.928;7.084;2022-07-01T05:55:02;2.42;;;1.20;;
37559;SDS011;23398;50.928;7.084;2022-07-01T05:57:28;2.05;;;1.10;;
37559;SDS011;23398;50.928;7.084;2022-07-01T05:59:54;1.92;;;1.25;;
37559;SDS011;23398;50.928;7.084;2022-07-01T06:02:19;3.05;;;1.35;;
37559;SDS011;23398;50.928;7.084;2022-07-01T06:04:45;2.17;;;1.20;;
37559;SDS011;23398;50.928;7.084;2022-07-01T06:07:11;1.75;;;1.25;;
37559;SDS011;23398;50.928;7.084;2022-07-01T06:09:37;1.23;;;1.00;;
37559;SDS011;23398;50.928;7.084;2022-07-01T06:12:03;1.40;;;1.02;;
37559;SDS011;23398;50.928;7.084;2022-07-01T06:14:29;1.35;;;1.10;;
37559;SDS011;23398;50.928;7.084;2022-07-01T06:16:55;2.92;;;1.10;;
37559;SDS011;23398;50.928;7.084;2022-07-01T06:19:20;1.40;;;1.10;;
37559;SDS011;23398;50.928;7.084;2022-07-01T06:21:46;2.25;;;1.20;;
37559;SDS011;23398;50.928;7.084;2022-07-01T06:24:12;4.07;;;1.52;;
37559;SDS011;23398;50.928;7.084;2022-07-01T06:26:37;2.10;;;1.20;;
37559;SDS011;23398;50.928;7.084;2022-07-01T06:29:03;3.35;;;1.75;;
37559;SDS011;23398;50.928;7.084;2022-07-01T06:31:29;4.35;;;1.88;;
37559;SDS011;23398;50.928;7.084;2022-07-01T06:33:54;2.85;;;1.45;;
37559;SDS011;23398;50.928;7.084;2022-07-01T06:36:20;2.40;;;1.33;;
37559;SDS011;23398;50.928;7.084;2022-07-01T06:38:46;2.65;;;1.30;;
37559;SDS011;23398;50.928;7.084;2022-07-01T06:41:12;3.53;;;1.20;;
37559;SDS011;23398;50.928;7.084;2022-07-01T06:43:56;1.25;;;0.98;;
37559;SDS011;23398;50.928;7.084;2022-07-01T06:46:23;4.63;;;1.50;;
37559;SDS011;23398;50.928;7.084;2022-07-01T06:48:49;2.33;;;1.20;;
37559;SDS011;23398;50.928;7.084;2022-07-01T06:51:15;1.15;;;1.05;;
37559;SDS011;23398;50.928;7.084;2022-07-01T06:53:41;1.90;;;1.15;;
37559;SDS011;23398;50.928;7.084;2022-07-01T06:56:10;3.55;;;1.50;;
37559;SDS011;23398;50.928;7.084;2022-07-01T06:58:36;2.50;;;1.40;;
37559;SDS011;23398;50.928;7.084;2022-07-01T07:01:02;1.80;;;1.30;;
37559;SDS011;23398;50.928;7.084;2022-07-01T07:03:28;2.60;;;1.40;;
37559;SDS011;23398;50.928;7.084;2022-07-01T07:05:54;1.90;;;1.10;;
37559;SDS011;23398;50.928;7.084;2022-07-01T07:08:20;2.08;;;1.20;;
37559;SDS011;23398;50.928;7.084;2022-07-01T07:10:46;2.35;;;1.00;;
37559;SDS011;23398;50.928;7.084;2022-07-01T07:13:11;1.48;;;0.90;;
37559;SDS011;23398;50.928;7.084;2022-07-01T07:15:37;1.67;;;1.00;;
37559;SDS011;23398;50.928;7.084;2022-07-01T07:18:06;1.67;;;0.90;;
37559;SDS011;23398;50.928;7.084;2022-07-01T07:20:33;2.40;;;1.00;;
37559;SDS011;23398;50.928;7.084;2022-07-01T07:22:59;1.98;;;1.00;;
37559;SDS011;23398;50.928;7.084;2022-07-01T07:25:25;1.70;;;1.20;;
37559;SDS011;23398;50.928;7.084;2022-07-01T07:27:50;1.85;;;1.08;;
37559;SDS011;23398;50.928;7.084;2022-07-01T07:30:17;3.63;;;1.50;;
37559;SDS011;23398;50.928;7.084;2022-07-01T07:32:43;5.50;;;1.42;;
37559;SDS011;23398;50.928;7.084;2022-07-01T07:35:10;4.35;;;1.23;;
37559;SDS011;23398;50.928;7.084;2022-07-01T07:37:37;3.00;;;1.10;;
37559;SDS011;23398;50.928;7.084;2022-07-01T07:40:03;2.47;;;1.20;;
37559;SDS011;23398;50.928;7.084;2022-07-01T07:42:31;2.92;;;1.02;;
37559;SDS011;23398;50.928;7.084;2022-07-01T07:44:57;1.45;;;1.00;;
37559;SDS011;23398;50.928;7.084;2022-07-01T07:47:23;2.17;;;1.00;;
37559;SDS011;23398;50.928;7.084;2022-07-01T07:49:49;2.72;;;1.20;;
37559;SDS011;23398;50.928;7.084;2022-07-01T07:52:14;2.05;;;1.08;;
37559;SDS011;23398;50.928;7.084;2022-07-01T07:54:40;2.08;;;1.20;;
37559;SDS011;23398;50.928;7.084;2022-07-01T07:57:06;1.60;;;1.05;;
37559;SDS011;23398;50.928;7.084;2022-07-01T07:59:33;1.58;;;1.20;;
37559;SDS011;23398;50.928;7.084;2022-07-01T08:01:58;1.10;;;1.00;;
37559;SDS011;23398;50.928;7.084;2022-07-01T08:04:24;1.40;;;0.98;;
37559;SDS011;23398;50.928;7.084;2022-07-01T08:06:50;2.65;;;1.40;;
37559;SDS011;23398;50.928;7.084;2022-07-01T08:09:15;3.75;;;1.60;;
37559;SDS011;23398;50.928;7.084;2022-07-01T08:11:41;4.50;;;1.40;;
37559;SDS011;23398;50.928;7.084;2022-07-01T08:14:06;3.47;;;2.33;;
37559;SDS011;23398;50.928;7.084;2022-07-01T08:16:32;2.55;;;1.40;;
37559;SDS011;23398;50.928;7.084;2022-07-01T08:18:58;3.35;;;1.48;;
37559;SDS011;23398;50.928;7.084;2022-07-01T08:21:23;2.50;;;1.33;;
37559;SDS011;23398;50.928;7.084;2022-07-01T08:23:49;1.08;;;0.98;;
37559;SDS011;23398;50.928;7.084;2022-07-01T08:26:15;2.33;;;1.10;;
37559;SDS011;23398;50.928;7.084;2022-07-01T08:28:41;2.47;;;1.15;;
37559;SDS011;23398;50.928;7.084;2022-07-01T08:31:07;2.10;;;1.10;;
37559;SDS011;23398;50.928;7.084;2022-07-01T08:33:33;2.35;;;1.10;;
37559;SDS011;23398;50.928;7.084;2022-07-01T08:35:59;2.45;;;1.20;;
37559;SDS011;23398;50.928;7.084;2022-07-01T08:38:25;2.00;;;1.08;;
37559;SDS011;23398;50.928;7.084;2022-07-01T08:40:50;2.88;;;1.50;;
37559;SDS011;23398;50.928;7.084;2022-07-01T08:43:16;2.30;;;1.27;;
37559;SDS011;23398;50.928;7.084;2022-07-01T08:45:41;2.03;;;1.10;;
37559;SDS011;23398;50.928;7.084;2022-07-01T08:48:07;3.47;;;1.23;;
37559;SDS011;23398;50.928;7.084;2022-07-01T08:50:40;1.83;;;1.00;;
37559;SDS011;23398;50.928;7.084;2022-07-01T08:53:06;2.95;;;0.95;;
37559;SDS011;23398;50.928;7.084;2022-07-01T08:55:34;1.60;;;1.20;;
37559;SDS011;23398;50.928;7.084;2022-07-01T08:58:18;2.92;;;1.10;;
37559;SDS011;23398;50.928;7.084;2022-07-01T09:00:45;1.83;;;1.10;;
37559;SDS011;23398;50.928;7.084;2022-07-01T09:03:10;1.35;;;0.95;;
37559;SDS011;23398;50.928;7.084;2022-07-01T09:05:36;1.08;;;0.98;;
37559;SDS011;23398;50.928;7.084;2022-07-01T09:08:03;3.28;;;1.10;;
37559;SDS011;23398;50.928;7.084;2022-07-01T09:10:30;1.17;;;0.90;;
37559;SDS011;23398;50.928;7.084;2022-07-01T09:13:08;1.67;;;1.20;;
37559;SDS011;23398;50.928;7.084;2022-07-01T09:15:36;2.55;;;1.30;;
37559;SDS011;23398;50.928;7.084;2022-07-01T09:20:36;1.73;;;1.00;;
37559;SDS011;23398;50.928;7.084;2022-07-01T09:23:11;1.50;;;1.00;;
37559;SDS011;23398;50.928;7.084;2022-07-01T09:25:47;3.13;;;0.93;;
37559;SDS011;23398;50.928;7.084;2022-07-01T09:30:47;1.48;;;1.00;;
37559;SDS011;23398;50.928;7.084;2022-07-01T09:33:23;1.35;;;1.00;;
37559;SDS011;23398;50.928;7.084;2022-07-01T09:35:50;2.15;;;1.42;;
37559;SDS011;23398;50.928;7.084;2022-07-01T09:38:18;1.48;;;1.30;;
37559;SDS011;23398;50.928;7.084;2022-07-01T09:40:56;1.30;;;1.20;;
37559;SDS011;23398;50.928;7.084;2022-07-01T09:43:23;1.45;;;1.10;;
37559;SDS011;23398;50.928;7.084;2022-07-01T09:45:56;2.08;;;0.98;;
37559;SDS011;23398;50.928;7.084;2022-07-01T09:48:27;1.25;;;1.10;;
37559;SDS011;23398;50.928;7.084;2022-07-01T09:51:08;1.95;;;1.15;;
37559;SDS011;23398;50.928;7.084;2022-07-01T09:53:34;1.38;;;0.85;;
37559;SDS011;23398;50.928;7.084;2022-07-01T09:56:00;1.40;;;1.10;;
37559;SDS011;23398;50.928;7.084;2022-07-01T09:58:26;1.17;;;0.90;;
37559;SDS011;23398;50.928;7.084;2022-07-01T10:00:52;1.40;;;1.00;;
37559;SDS011;23398;50.928;7.084;2022-07-01T10:03:18;1.10;;;1.00;;
37559;SDS011;23398;50.928;7.084;2022-07-01T10:05:53;1.42;;;1.00;;
37559;SDS011;23398;50.928;7.084;2022-07-01T10:11:25;1.27;;;0.90;;
37559;SDS011;23398;50.928;7.084;2022-07-01T10:14:16;3.00;;;1.10;;
37559;SDS011;23398;50.928;7.084;2022-07-01T10:16:47;1.20;;;1.05;;
37559;SDS011;23398;50.928;7.084;2022-07-01T10:22:00;1.92;;;1.10;;
37559;SDS011;23398;50.928;7.084;2022-07-01T10:24:46;1.13;;;0.98;;
37559;SDS011;23398;50.928;7.084;2022-07-01T10:27:18;1.95;;;1.00;;
37559;SDS011;23398;50.928;7.084;2022-07-01T10:29:48;2.25;;;1.00;;
37559;SDS011;23398;50.928;7.084;2022-07-01T10:32:41;1.45;;;1.10;;
37559;SDS011;23398;50.928;7.084;2022-07-01T10:35:13;2.00;;;1.00;;
37559;SDS011;23398;50.928;7.084;2022-07-01T10:38:01;1.63;;;1.00;;
37559;SDS011;23398;50.928;7.084;2022-07-01T10:40:43;2.28;;;1.10;;
37559;SDS011;23398;50.928;7.084;2022-07-01T10:43:17;1.38;;;1.00;;
37559;SDS011;23398;50.928;7.084;2022-07-01T10:45:57;1.98;;;1.10;;
37559;SDS011;23398;50.928;7.084;2022-07-01T10:48:23;1.40;;;1.00;;
37559;SDS011;23398;50.928;7.084;2022-07-01T10:50:49;1.75;;;1.00;;
37559;SDS011;23398;50.928;7.084;2022-07-01T10:53:16;1.60;;;1.08;;
37559;SDS011;23398;50.928;7.084;2022-07-01T10:55:47;2.63;;;1.20;;
37559;SDS011;23398;50.928;7.084;2022-07-01T10:58:15;1.35;;;1.00;;
37559;SDS011;23398;50.928;7.084;2022-07-01T11:00:44;1.67;;;1.00;;
37559;SDS011;23398;50.928;7.084;2022-07-01T11:03:12;1.63;;;1.10;;
37559;SDS011;23398;50.928;7.084;2022-07-01T11:05:38;1.50;;;1.00;;
37559;SDS011;23398;50.928;7.084;2022-07-01T11:08:05;1.83;;;1.23;;
37559;SDS011;23398;50.928;7.084;2022-07-01T11:10:32;1.40;;;1.20;;
37559;SDS011;23398;50.928;7.084;2022-07-01T11:12:59;1.83;;;1.20;;
37559;SDS011;23398;50.928;7.084;2022-07-01T11:15:26;1.20;;;1.00;;
37559;SDS011;23398;50.928;7.084;2022-07-01T11:17:54;3.30;;;1.20;;
37559;SDS011;23398;50.928;7.084;2022-07-01T11:20:22;1.80;;;1.20;;
37559;SDS011;23398;50.928;7.084;2022-07-01T11:22:49;20.90;;;2.92;;
37559;SDS011;23398;50.928;7.084;2022-07-01T11:25:15;2.58;;;1.10;;
37559;SDS011;23398;50.928;7.084;2022-07-01T11:27:45;1.90;;;1.20;;
37559;SDS011;23398;50.928;7.084;2022-07-01T11:30:12;3.20;;;1.23;;
37559;SDS011;23398;50.928;7.084;2022-07-01T11:35:07;1.27;;;0.95;;
37559;SDS011;23398;50.928;7.084;2022-07-01T11:37:52;3.92;;;1.20;;
37559;SDS011;23398;50.928;7.084;2022-07-01T11:40:47;2.30;;;1.00;;
37559;SDS011;23398;50.928;7.084;2022-07-01T11:43:20;1.42;;;1.00;;
37559;SDS011;23398;50.928;7.084;2022-07-01T11:45:48;1.67;;;0.90;;
37559;SDS011;23398;50.928;7.084;2022-07-01T11:48:27;2.55;;;1.00;;
37559;SDS011;23398;50.928;7.084;2022-07-01T11:51:00;2.10;;;1.30;;
37559;SDS011;23398;50.928;7.084;2022-07-01T11:53:30;2.78;;;2.20;;
37559;SDS011;23398;50.928;7.084;2022-07-01T11:55:55;1.70;;;1.30;;
37559;SDS011;23398;50.928;7.084;2022-07-01T11:58:21;2.58;;;1.27;;
37559;SDS011;23398;50.928;7.084;2022-07-01T12:00:47;5.55;;;1.30;;
37559;SDS011;23398;50.928;7.084;2022-07-01T12:03:13;1.80;;;1.58;;
37559;SDS011;23398;50.928;7.084;2022-07-01T12:05:54;2.30;;;1.55;;
37559;SDS011;23398;50.928;7.084;2022-07-01T12:08:20;2.08;;;1.20;;
37559;SDS011;23398;50.928;7.084;2022-07-01T12:10:46;2.67;;;1.20;;
37559;SDS011;23398;50.928;7.084;2022-07-01T12:13:21;4.72;;;1.10;;
37559;SDS011;23398;50.928;7.084;2022-07-01T12:15:48;1.92;;;1.25;;
37559;SDS011;23398;50.928;7.084;2022-07-01T12:18:14;2.65;;;1.50;;
37559;SDS011;23398;50.928;7.084;2022-07-01T12:20:47;1.65;;;1.50;;
37559;SDS011;23398;50.928;7.084;2022-07-01T12:23:14;2.13;;;1.10;;
37559;SDS011;23398;50.928;7.084;2022-07-01T12:25:40;2.42;;;1.10;;
37559;SDS011;23398;50.928;7.084;2022-07-01T12:29:00;3.10;;;1.10;;
37559;SDS011;23398;50.928;7.084;2022-07-01T12:31:06;0.80;;;0.80;;
37559;SDS011;23398;50.928;7.084;2022-07-01T12:33:34;1.90;;;1.10;;
37559;SDS011;23398;50.928;7.084;2022-07-01T12:36:04;1.83;;;1.00;;
37559;SDS011;23398;50.928;7.084;2022-07-01T12:38:30;1.92;;;1.00;;
37559;SDS011;23398;50.928;7.084;2022-07-01T12:40:57;0.80;;;0.80;;
37559;SDS011;23398;50.928;7.084;2022-07-01T12:43:27;1.15;;;0.80;;
37559;SDS011;23398;50.928;7.084;2022-07-01T12:45:58;1.35;;;1.00;;
37559;SDS011;23398;50.928;7.084;2022-07-01T12:48:24;1.52;;;0.90;;
37559;SDS011;23398;50.928;7.084;2022-07-01T12:50:54;1.70;;;0.90;;
37559;SDS011;23398;50.928;7.084;2022-07-01T12:53:22;1.17;;;1.00;;
37559;SDS011;23398;50.928;7.084;2022-07-01T12:55:52;1.80;;;0.90;;
37559;SDS011;23398;50.928;7.084;2022-07-01T12:58:21;1.35;;;0.80;;
37559;SDS011;23398;50.928;7.084;2022-07-01T13:00:49;3.38;;;1.00;;
37559;SDS011;23398;50.928;7.084;2022-07-01T13:03:20;2.65;;;1.17;;
37559;SDS011;23398;50.928;7.084;2022-07-01T13:05:48;3.58;;;1.23;;
37559;SDS011;23398;50.928;7.084;2022-07-01T13:08:15;3.67;;;1.50;;
37559;SDS011;23398;50.928;7.084;2022-07-01T13:10:41;2.22;;;1.00;;
37559;SDS011;23398;50.928;7.084;2022-07-01T13:13:07;2.15;;;1.02;;
37559;SDS011;23398;50.928;7.084;2022-07-01T13:15:33;2.95;;;0.85;;
37559;SDS011;23398;50.928;7.084;2022-07-01T13:17:59;2.17;;;0.95;;
37559;SDS011;23398;50.928;7.084;2022-07-01T13:20:25;1.30;;;0.85;;
37559;SDS011;23398;50.928;7.084;2022-07-01T13:22:51;1.30;;;0.88;;
37559;SDS011;23398;50.928;7.084;2022-07-01T13:25:18;2.00;;;0.90;;
37559;SDS011;23398;50.928;7.084;2022-07-01T13:27:44;1.17;;;0.80;;
37559;SDS011;23398;50.928;7.084;2022-07-01T13:30:10;2.45;;;0.82;;
37559;SDS011;23398;50.928;7.084;2022-07-01T13:32:37;1.58;;;0.82;;
37559;SDS011;23398;50.928;7.084;2022-07-01T13:35:04;1.00;;;0.80;;
37559;SDS011;23398;50.928;7.084;2022-07-01T13:37:30;3.97;;;1.10;;
37559;SDS011;23398;50.928;7.084;2022-07-01T13:39:56;2.78;;;1.00;;
37559;SDS011;23398;50.928;7.084;2022-07-01T13:42:21;2.15;;;1.08;;
37559;SDS011;23398;50.928;7.084;2022-07-01T13:44:47;1.30;;;0.80;;
37559;SDS011;23398;50.928;7.084;2022-07-01T13:47:13;1.63;;;0.82;;
37559;SDS011;23398;50.928;7.084;2022-07-01T13:49:39;1.63;;;0.90;;
37559;SDS011;23398;50.928;7.084;2022-07-01T13:52:07;1.05;;;0.70;;
37559;SDS011;23398;50.928;7.084;2022-07-01T13:54:33;1.33;;;0.73;;
37559;SDS011;23398;50.928;7.084;2022-07-01T13:56:59;1.80;;;1.10;;
37559;SDS011;23398;50.928;7.084;2022-07-01T13:59:24;2.35;;;1.30;;
37559;SDS011;23398;50.928;7.084;2022-07-01T14:01:50;1.73;;;1.30;;
37559;SDS011;23398;50.928;7.084;2022-07-01T14:04:15;2.47;;;1.80;;
37559;SDS011;23398;50.928;7.084;2022-07-01T14:06:41;2.65;;;1.20;;
37559;SDS011;23398;50.928;7.084;2022-07-01T14:09:07;1.20;;;1.00;;
37559;SDS011;23398;50.928;7.084;2022-07-01T14:11:33;1.58;;;0.75;;
37559;SDS011;23398;50.928;7.084;2022-07-01T14:13:58;2.03;;;0.88;;
37559;SDS011;23398;50.928;7.084;2022-07-01T14:16:24;2.40;;;0.70;;
37559;SDS011;23398;50.928;7.084;2022-07-01T14:18:51;1.00;;;0.73;;
37559;SDS011;23398;50.928;7.084;2022-07-01T14:21:17;1.05;;;0.90;;
37559;SDS011;23398;50.928;7.084;2022-07-01T14:23:43;1.30;;;0.82;;
37559;SDS011;23398;50.928;7.084;2022-07-01T14:26:08;1.33;;;0.88;;
37559;SDS011;23398;50.928;7.084;2022-07-01T14:28:34;4.57;;;1.80;;
37559;SDS011;23398;50.928;7.084;2022-07-01T14:31:00;2.20;;;0.95;;
37559;SDS011;23398;50.928;7.084;2022-07-01T14:33:26;1.33;;;0.85;;
37559;SDS011;23398;50.928;7.084;2022-07-01T14:35:51;4.65;;;1.13;;
37559;SDS011;23398;50.928;7.084;2022-07-01T14:38:17;3.47;;;0.90;;
37559;SDS011;23398;50.928;7.084;2022-07-01T14:40:43;0.80;;;0.70;;
37559;SDS011;23398;50.928;7.084;2022-07-01T14:43:09;1.85;;;0.75;;
37559;SDS011;23398;50.928;7.084;2022-07-01T14:45:35;1.77;;;0.70;;
37559;SDS011;23398;50.928;7.084;2022-07-01T14:48:00;2.10;;;0.70;;
37559;SDS011;23398;50.928;7.084;2022-07-01T14:50:26;1.50;;;0.82;;
37559;SDS011;23398;50.928;7.084;2022-07-01T14:52:52;1.27;;;0.70;;
37559;SDS011;23398;50.928;7.084;2022-07-01T14:55:17;1.48;;;0.70;;
37559;SDS011;23398;50.928;7.084;2022-07-01T14:57:43;0.82;;;0.60;;
37559;SDS011;23398;50.928;7.084;2022-07-01T15:00:09;2.83;;;1.00;;
37559;SDS011;23398;50.928;7.084;2022-07-01T15:02:36;1.50;;;0.93;;